createdAt,value
2019-05-15T00:00:40.779Z,75960.25
2019-05-15T00:03:10.333Z,75961.38
2019-05-15T00:05:39.801Z,75970.14
2019-05-15T00:08:09.803Z,75972.66
2019-05-15T00:10:39.607Z,75968.16
2019-05-15T00:13:09.506Z,75970.09
2019-05-15T00:15:40.314Z,75963.31
2019-05-15T00:18:09.934Z,75956.80
2019-05-15T00:20:39.678Z,75959.61
2019-05-15T00:23:09.247Z,75959.83
2019-05-15T00:25:39.326Z,75966.95
2019-05-15T00:28:09.790Z,75966.14
2019-05-15T00:30:39.499Z,75961.16
2019-05-15T00:33:09.402Z,75966.17
2019-05-15T00:35:39.747Z,75962.89
2019-05-15T00:38:09.695Z,75966.99
2019-05-15T00:40:39.718Z,75963.95
2019-05-15T00:43:09.366Z,75954.13
2019-05-15T00:45:39.045Z,75964.80
2019-05-15T00:48:09.027Z,75961.80
2019-05-15T00:50:39.543Z,75957.28
2019-05-15T00:53:09.607Z,75954.84
2019-05-15T00:55:39.971Z,75961.63
2019-05-15T00:58:09.365Z,75969.18
2019-05-15T01:00:43.872Z,75977.50
2019-05-15T01:03:13.331Z,75972.56
2019-05-15T01:05:42.798Z,75956.39
2019-05-15T01:08:12.215Z,75954.57
2019-05-15T01:10:41.667Z,75969.53
2019-05-15T01:13:11.169Z,75966.82
2019-05-15T01:15:40.630Z,75963.89
2019-05-15T01:18:10.120Z,75953.77
2019-05-15T01:20:39.580Z,75955.23
2019-05-15T01:23:09.238Z,75960.54
2019-05-15T01:25:39.230Z,75970.95
2019-05-15T01:28:09.612Z,75971.59
2019-05-15T01:30:39.592Z,75974.76
2019-05-15T01:33:09.356Z,75974.27
2019-05-15T01:35:38.841Z,75963.92
2019-05-15T01:38:08.604Z,75967.48
2019-05-15T01:40:38.724Z,75970.02
2019-05-15T01:43:09.047Z,75968.73
2019-05-15T01:45:39.625Z,75979.38
2019-05-15T01:48:09.262Z,75971.95
2019-05-15T01:50:39.127Z,75971.50
2019-05-15T01:53:08.724Z,75985.48
2019-05-15T01:55:39.594Z,75979.85
2019-05-15T01:58:09.520Z,75976.73
2019-05-15T02:00:39.456Z,75976.24
2019-05-15T02:03:09.759Z,75969.89
2019-05-15T02:05:39.934Z,75982.02
2019-05-15T02:08:09.392Z,75977.02
2019-05-15T02:10:39.456Z,75985.00
2019-05-15T02:13:09.025Z,75980.02
2019-05-15T02:15:39.588Z,75985.08
2019-05-15T02:18:09.153Z,75981.81
2019-05-15T02:20:39.209Z,75979.38
2019-05-15T02:23:11.538Z,75979.85
2019-05-15T02:25:40.369Z,75985.39
2019-05-15T02:28:09.857Z,75992.88
2019-05-15T02:30:40.769Z,75984.43
2019-05-15T02:33:11.194Z,75982.47
2019-05-15T02:35:40.714Z,75981.85
2019-05-15T02:38:14.729Z,75987.20
2019-05-15T02:40:41.402Z,75990.69
2019-05-15T02:43:10.893Z,75977.20
2019-05-15T02:45:42.053Z,75984.55
2019-05-15T02:48:11.541Z,75986.65
2019-05-15T02:50:41.001Z,75988.30
2019-05-15T02:53:10.600Z,75997.81
2019-05-15T02:55:40.781Z,75992.91
2019-05-15T02:58:10.701Z,75985.04
2019-05-15T03:00:47.445Z,75987.17
2019-05-15T03:03:11.608Z,75991.62
2019-05-15T03:05:41.307Z,75986.52
2019-05-15T03:08:10.781Z,75991.94
2019-05-15T03:10:41.090Z,75987.11
2019-05-15T03:13:10.703Z,75987.75
2019-05-15T03:15:40.911Z,75984.16
2019-05-15T03:18:10.587Z,75972.63
2019-05-15T03:20:40.562Z,75969.28
2019-05-15T03:23:10.311Z,75969.41
2019-05-15T03:25:40.826Z,75972.44
2019-05-15T03:28:11.159Z,75980.30
2019-05-15T03:31:13.379Z,75978.59
2019-05-15T03:33:20.641Z,75978.59
2019-05-15T03:35:44.667Z,75980.73
2019-05-15T03:38:14.381Z,75981.95
2019-05-15T03:40:43.852Z,75985.84
2019-05-15T03:43:13.303Z,75982.50
2019-05-15T03:45:42.656Z,75978.08
2019-05-15T03:48:12.042Z,75979.81
2019-05-15T03:50:42.105Z,75989.17
2019-05-15T03:53:11.587Z,75999.42
2019-05-15T03:55:41.090Z,76005.36
2019-05-15T03:58:10.656Z,76003.52
2019-05-15T04:00:40.339Z,76003.94
2019-05-15T04:03:11.150Z,75997.00
2019-05-15T04:05:40.869Z,75998.06
2019-05-15T04:08:11.335Z,76003.45
2019-05-15T04:10:40.959Z,76005.88
2019-05-15T04:13:10.411Z,76007.29
2019-05-15T04:15:40.223Z,76006.58
2019-05-15T04:18:10.032Z,76013.30
2019-05-15T04:20:40.831Z,76007.29
2019-05-15T04:23:10.848Z,76004.71
2019-05-15T04:25:40.523Z,76003.78
2019-05-15T04:28:10.238Z,76002.30
2019-05-15T04:30:39.848Z,76010.95
2019-05-15T04:33:09.845Z,76019.22
2019-05-15T04:35:40.493Z,76020.16
2019-05-15T04:38:10.247Z,76015.67
2019-05-15T04:40:40.171Z,76019.25
2019-05-15T04:43:11.131Z,76026.41
2019-05-15T04:45:40.669Z,76030.02
2019-05-15T04:48:10.640Z,76033.80
2019-05-15T04:50:40.612Z,76024.91
2019-05-15T04:53:11.077Z,76024.80
2019-05-15T04:55:41.015Z,76027.93
2019-05-15T04:58:10.861Z,76029.54
2019-05-15T05:00:54.373Z,76040.44
2019-05-15T05:03:23.751Z,76036.44
2019-05-15T05:05:53.200Z,76041.15
2019-05-15T05:08:22.708Z,76044.03
2019-05-15T05:10:52.163Z,76041.44
2019-05-15T05:13:21.628Z,76046.83
2019-05-15T05:15:51.112Z,76054.95
2019-05-15T05:18:20.709Z,76046.08
2019-05-15T05:20:50.261Z,76046.56
2019-05-15T05:23:19.708Z,76053.66
2019-05-15T05:25:49.607Z,76050.28
2019-05-15T05:28:19.431Z,76042.85
2019-05-15T05:30:49.250Z,76045.92
2019-05-15T05:33:19.146Z,76043.67
2019-05-15T05:35:49.024Z,76045.03
2019-05-15T05:38:19.497Z,76040.44
2019-05-15T05:40:50.196Z,76050.05
2019-05-15T05:43:20.459Z,76057.89
2019-05-15T05:45:49.937Z,76064.20
2019-05-15T05:48:19.541Z,76071.24
2019-05-15T05:50:49.888Z,76081.21
2019-05-15T05:53:21.169Z,76086.09
2019-05-15T05:55:53.264Z,76087.53
2019-05-15T05:58:22.309Z,76100.95
2019-05-15T06:00:52.529Z,76110.84
2019-05-15T06:03:21.920Z,76117.91
2019-05-15T06:05:51.384Z,76121.33
2019-05-15T06:08:20.818Z,76113.55
2019-05-15T06:10:50.303Z,76104.70
2019-05-15T06:13:19.707Z,76100.89
2019-05-15T06:15:49.338Z,76102.54
2019-05-15T06:18:19.921Z,76112.42
2019-05-15T06:20:50.211Z,76104.11
2019-05-15T06:23:24.527Z,76109.77
2019-05-15T06:25:51.708Z,76117.13
2019-05-15T06:28:21.213Z,76134.33
2019-05-15T06:30:50.693Z,76140.94
2019-05-15T06:33:20.198Z,76138.84
2019-05-15T06:35:49.601Z,76138.23
2019-05-15T06:38:19.806Z,76148.08
2019-05-15T06:40:50.375Z,76154.34
2019-05-15T06:43:19.925Z,76167.25
2019-05-15T06:45:49.706Z,76183.23
2019-05-15T06:48:19.297Z,76212.63
2019-05-15T06:50:49.420Z,76223.82
2019-05-15T06:53:19.622Z,76232.44
2019-05-15T06:55:49.447Z,76248.40
2019-05-15T06:58:19.934Z,76267.67
2019-05-15T07:00:49.873Z,76279.55
2019-05-15T07:03:25.177Z,76275.86
2019-05-15T07:05:51.250Z,76277.86
2019-05-15T07:08:23.165Z,76284.58
2019-05-15T07:10:52.621Z,76312.63
2019-05-15T07:13:22.080Z,76320.15
2019-05-15T07:15:51.549Z,76327.36
2019-05-15T07:18:21.053Z,76344.10
2019-05-15T07:20:50.521Z,76359.14
2019-05-15T07:23:20.220Z,76360.36
2019-05-15T07:25:50.343Z,76342.97
2019-05-15T07:28:19.976Z,76346.36
2019-05-15T07:30:49.896Z,76363.42
2019-05-15T07:33:35.736Z,76372.36
2019-05-15T07:35:51.930Z,76380.98
2019-05-15T07:38:21.415Z,76382.80
2019-05-15T07:40:57.301Z,76372.84
2019-05-15T07:43:22.225Z,76377.23
2019-05-15T07:45:54.707Z,76362.30
2019-05-15T07:48:22.928Z,76367.27
2019-05-15T07:50:52.420Z,76384.99
2019-05-15T07:53:21.880Z,76407.39
2019-05-15T07:55:51.599Z,76422.76
2019-05-15T07:58:22.126Z,76420.14
2019-05-15T08:00:51.746Z,76405.52
2019-05-15T08:03:21.272Z,76409.34
2019-05-15T08:05:58.930Z,76410.47
2019-05-15T08:08:21.903Z,76408.49
2019-05-15T08:10:51.364Z,76394.34
2019-05-15T08:13:20.846Z,76369.92
2019-05-15T08:15:50.276Z,76371.45
2019-05-15T08:18:20.551Z,76389.23
2019-05-15T08:20:50.027Z,76393.63
2019-05-15T08:23:19.786Z,76409.70
2019-05-15T08:25:49.288Z,76419.02
2019-05-15T08:28:19.363Z,76432.63
2019-05-15T08:30:49.852Z,76435.02
2019-05-15T08:33:19.759Z,76419.39
2019-05-15T08:35:51.854Z,76427.42
2019-05-15T08:38:20.540Z,76454.32
2019-05-15T08:40:49.931Z,76456.98
2019-05-15T08:43:19.725Z,76439.50
2019-05-15T08:45:50.015Z,76442.06
2019-05-15T08:48:19.686Z,76437.88
2019-05-15T08:50:49.237Z,76442.13
2019-05-15T08:53:19.586Z,76419.20
2019-05-15T08:55:49.797Z,76410.47
2019-05-15T08:58:20.569Z,76408.85
2019-05-15T09:00:52.303Z,76410.72
2019-05-15T09:03:21.452Z,76411.72
2019-05-15T09:05:51.011Z,76420.45
2019-05-15T09:08:20.499Z,76431.03
2019-05-15T09:10:50.523Z,76412.17
2019-05-15T09:13:20.128Z,76433.16
2019-05-15T09:15:50.191Z,76438.53
2019-05-15T09:18:20.468Z,76454.67
2019-05-15T09:20:50.246Z,76471.42
2019-05-15T09:23:20.175Z,76475.53
2019-05-15T09:25:50.023Z,76489.45
2019-05-15T09:28:19.785Z,76488.70
2019-05-15T09:30:49.661Z,76521.05
2019-05-15T09:33:20.014Z,76562.38
2019-05-15T09:35:49.937Z,76569.51
2019-05-15T09:38:19.405Z,76587.86
2019-05-15T09:40:51.000Z,76591.45
2019-05-15T09:43:20.115Z,76598.31
2019-05-15T09:45:49.661Z,76598.09
2019-05-15T09:48:19.979Z,76611.48
2019-05-15T09:50:49.799Z,76619.98
2019-05-15T09:53:19.474Z,76625.34
2019-05-15T09:55:49.869Z,76617.92
2019-05-15T09:58:21.037Z,76610.55
2019-05-15T10:00:52.731Z,76608.86
2019-05-15T10:03:21.884Z,76592.00
2019-05-15T10:05:51.381Z,76609.84
2019-05-15T10:08:21.535Z,76635.22
2019-05-15T10:10:51.166Z,76658.80
2019-05-15T10:13:20.667Z,76704.25
2019-05-15T10:15:51.263Z,76739.90
2019-05-15T10:18:20.915Z,76760.73
2019-05-15T10:20:50.496Z,76788.28
2019-05-15T10:23:20.168Z,76769.92
2019-05-15T10:25:49.685Z,76738.43
2019-05-15T10:28:19.905Z,76724.95
2019-05-15T10:30:50.039Z,76720.29
2019-05-15T10:33:20.571Z,76714.50
2019-05-15T10:35:50.155Z,76703.09
2019-05-15T10:38:19.758Z,76692.98
2019-05-15T10:41:03.848Z,76688.77
2019-05-15T10:43:21.153Z,76699.46
2019-05-15T10:45:54.177Z,76691.13
2019-05-15T10:48:21.996Z,76651.33
2019-05-15T10:50:51.464Z,76631.45
2019-05-15T10:53:22.442Z,76634.28
2019-05-15T10:55:51.864Z,76636.08
2019-05-15T10:58:21.982Z,76623.44
2019-05-15T11:00:51.915Z,76606.66
2019-05-15T11:03:21.457Z,76610.19
2019-05-15T11:05:50.789Z,76608.09
2019-05-15T11:08:20.254Z,76595.46
2019-05-15T11:10:49.967Z,76588.86
2019-05-15T11:13:19.566Z,76573.20
2019-05-15T11:15:49.473Z,76533.35
2019-05-15T11:18:19.152Z,76529.23
2019-05-15T11:20:49.101Z,76527.04
2019-05-15T11:23:20.093Z,76506.50
2019-05-15T11:25:50.011Z,76495.81
2019-05-15T11:28:19.490Z,76497.95
2019-05-15T11:30:49.376Z,76494.65
2019-05-15T11:33:19.378Z,76500.34
2019-05-15T11:36:01.107Z,76523.80
2019-05-15T11:38:20.401Z,76555.78
2019-05-15T11:40:49.893Z,76553.20
2019-05-15T11:43:19.921Z,76552.75
2019-05-15T11:45:49.541Z,76546.76
2019-05-15T11:48:20.682Z,76572.42
2019-05-15T11:50:50.376Z,76607.80
2019-05-15T11:53:19.848Z,76616.03
2019-05-15T11:55:49.364Z,76617.68
2019-05-15T11:58:19.329Z,76613.08
2019-05-15T12:00:49.415Z,76590.94
2019-05-15T12:03:19.318Z,76591.20
2019-05-15T12:05:48.982Z,76601.30
2019-05-15T12:08:18.767Z,76585.33
2019-05-15T12:10:48.426Z,76550.92
2019-05-15T12:13:18.985Z,76546.50
2019-05-15T12:15:48.819Z,76544.00
2019-05-15T12:18:18.397Z,76544.33
2019-05-15T12:20:48.584Z,76577.80
2019-05-15T12:23:18.467Z,76590.00
2019-05-15T12:25:48.873Z,76614.83
2019-05-15T12:28:18.603Z,76605.92
2019-05-15T12:33:19.284Z,76566.23
2019-05-15T12:37:59.000Z,76591.19
2019-05-15T12:38:19.884Z,76492.23
2019-05-15T13:00:58.707Z,76458.36
2019-05-15T13:03:28.964Z,76434.20
2019-05-15T13:05:58.774Z,76423.17
2019-05-15T13:08:29.020Z,76438.01
2019-05-15T13:10:58.813Z,76426.66
2019-05-15T13:13:28.535Z,76423.56
2019-05-15T13:15:58.897Z,76415.12
2019-05-15T13:18:28.811Z,76410.23
2019-05-15T13:20:59.418Z,76414.59
2019-05-15T13:23:29.235Z,76416.41
2019-05-15T13:25:59.375Z,76398.98
2019-05-15T13:28:29.355Z,76393.27
2019-05-15T13:30:59.831Z,76390.22
2019-05-15T13:33:29.441Z,76376.03
2019-05-15T13:35:58.908Z,76367.66
2019-05-15T13:38:28.957Z,76366.94
2019-05-15T13:40:59.073Z,76365.43
2019-05-15T13:43:29.160Z,76356.38
2019-05-15T13:45:59.839Z,76357.56
2019-05-15T13:48:29.877Z,76362.77
2019-05-15T13:50:59.467Z,76354.53
2019-05-15T13:53:28.998Z,76342.92
2019-05-15T13:55:58.516Z,76348.33
2019-05-15T13:58:28.383Z,76343.34
2019-05-15T14:00:58.882Z,76337.31
2019-05-15T14:03:28.804Z,76332.66
2019-05-15T14:05:58.551Z,76319.05
2019-05-15T14:08:28.853Z,76324.22
2019-05-15T14:10:58.750Z,76331.69
2019-05-15T14:13:28.927Z,76327.26
2019-05-15T14:15:59.436Z,76330.55
2019-05-15T14:18:28.897Z,76339.66
2019-05-15T14:20:58.639Z,76341.55
2019-05-15T14:23:29.440Z,76333.36
2019-05-15T14:26:13.055Z,76345.94
2019-05-15T14:28:30.562Z,76348.42
2019-05-15T14:31:00.048Z,76344.81
2019-05-15T14:33:29.520Z,76327.97
2019-05-15T14:35:59.050Z,76324.83
2019-05-15T14:38:29.065Z,76326.20
2019-05-15T14:40:59.207Z,76322.73
2019-05-15T14:43:29.442Z,76317.92
2019-05-15T14:45:59.401Z,76311.01
2019-05-15T14:48:28.883Z,76325.42
2019-05-15T14:50:58.584Z,76312.07
2019-05-15T14:53:29.376Z,76315.78
2019-05-15T14:56:00.365Z,76334.76
2019-05-15T14:58:30.064Z,76332.46
2019-05-15T15:01:03.251Z,76318.53
2019-05-15T15:03:30.822Z,76324.22
2019-05-15T15:06:00.396Z,76323.06
2019-05-15T15:08:32.475Z,76321.35
2019-05-15T15:11:01.153Z,76308.78
2019-05-15T15:13:31.030Z,76309.52
2019-05-15T15:16:00.424Z,76317.56
2019-05-15T15:18:29.922Z,76314.17
2019-05-15T15:20:59.351Z,76320.77
2019-05-15T15:23:28.817Z,76322.48
2019-05-15T15:25:58.602Z,76331.83
2019-05-15T15:28:28.265Z,76335.08
2019-05-15T15:30:58.220Z,76332.27
2019-05-15T15:33:28.884Z,76326.52
2019-05-15T15:35:58.661Z,76323.83
2019-05-15T15:38:40.612Z,76316.70
2019-05-15T15:41:00.453Z,76306.65
2019-05-15T15:43:30.239Z,76298.66
2019-05-15T15:45:59.718Z,76290.16
2019-05-15T15:48:29.217Z,76286.71
2019-05-15T15:50:58.923Z,76286.61
2019-05-15T15:53:28.801Z,76284.34
2019-05-15T15:55:58.791Z,76273.89
2019-05-15T15:58:29.126Z,76268.52
2019-05-15T16:00:58.684Z,76268.75
2019-05-15T16:03:28.780Z,76261.73
2019-05-15T16:05:58.442Z,76265.25
2019-05-15T16:08:28.576Z,76263.70
2019-05-15T16:10:59.020Z,76267.45
2019-05-15T16:13:49.757Z,76266.70
2019-05-15T16:16:19.232Z,76273.37
2019-05-15T16:18:49.258Z,76278.86
2019-05-15T16:21:19.377Z,76286.52
2019-05-15T16:23:48.941Z,76295.30
2019-05-15T16:26:19.478Z,76304.90
2019-05-15T16:28:49.205Z,76315.31
2019-05-15T16:31:18.861Z,76319.60
2019-05-15T16:33:48.320Z,76323.09
2019-05-15T16:36:18.406Z,76331.05
2019-05-15T16:38:48.319Z,76334.24
2019-05-15T16:41:18.459Z,76343.49
2019-05-15T16:43:48.568Z,76345.91
2019-05-15T16:46:19.264Z,76347.23
2019-05-15T16:48:49.526Z,76348.15
2019-05-15T16:51:19.248Z,76340.88
2019-05-15T16:53:50.534Z,76339.22
2019-05-15T16:56:20.009Z,76336.98
2019-05-15T16:58:49.495Z,76333.86
2019-05-15T17:01:18.910Z,76333.95
2019-05-15T17:03:48.551Z,76332.19
2019-05-15T17:06:18.797Z,76331.70
2019-05-15T17:08:48.846Z,76332.59
2019-05-15T17:11:19.890Z,76327.94
2019-05-15T17:13:49.628Z,76318.48
2019-05-15T17:16:19.105Z,76298.77
2019-05-15T17:18:48.678Z,76279.22
2019-05-15T17:21:19.131Z,76256.22
2019-05-15T17:23:49.009Z,76235.12
2019-05-15T17:26:19.031Z,76222.76
2019-05-15T17:28:48.555Z,76208.31
2019-05-15T17:31:18.227Z,76188.27
2019-05-15T17:33:48.940Z,76172.27
2019-05-15T17:36:18.780Z,76159.38
2019-05-15T17:38:48.731Z,76149.66
2019-05-15T17:41:18.338Z,76140.55
2019-05-15T17:43:48.550Z,76128.84
2019-05-15T17:46:18.277Z,76128.13
2019-05-15T17:48:55.331Z,76125.62
2019-05-15T17:51:18.988Z,76122.34
2019-05-15T17:53:48.922Z,76119.16
2019-05-15T17:56:18.510Z,76111.94
2019-05-15T17:58:48.732Z,76106.09
2019-05-15T18:01:19.220Z,76095.80
2019-05-15T18:03:48.812Z,76091.22
2019-05-15T18:06:18.660Z,76090.35
2019-05-15T18:08:48.685Z,76083.25
2019-05-15T18:11:18.798Z,76078.58
2019-05-15T18:13:48.768Z,76084.95
2019-05-15T18:16:18.440Z,76086.02
2019-05-15T18:18:48.011Z,76078.83
2019-05-15T18:21:19.996Z,76088.41
2019-05-15T18:23:49.465Z,76085.59
2019-05-15T18:26:18.940Z,76076.27
2019-05-15T18:28:48.941Z,76074.66
2019-05-15T18:31:18.570Z,76074.89
2019-05-15T18:33:54.633Z,76071.31
2019-05-15T18:36:19.330Z,76069.02
2019-05-15T18:38:48.813Z,76087.12
2019-05-15T18:41:18.513Z,76081.38
2019-05-15T18:43:48.471Z,76073.89
2019-05-15T18:46:18.405Z,76081.89
2019-05-15T18:48:48.601Z,76080.28
2019-05-15T18:51:18.207Z,76078.63
2019-05-15T18:53:48.275Z,76078.06
2019-05-15T18:56:18.735Z,76077.41
2019-05-15T18:58:48.654Z,76079.55
2019-05-15T19:01:18.149Z,76080.19
2019-05-15T19:03:48.013Z,76082.83
2019-05-15T19:06:18.466Z,76082.50
2019-05-15T19:08:48.189Z,76079.38
2019-05-15T19:11:18.428Z,76080.64
2019-05-15T19:13:48.257Z,76086.63
2019-05-15T19:16:17.892Z,76084.86
2019-05-15T19:18:47.899Z,76076.27
2019-05-15T19:21:17.648Z,76069.15
2019-05-15T19:23:48.047Z,76065.44
2019-05-15T19:26:18.308Z,76059.16
2019-05-15T19:28:48.585Z,76055.66
2019-05-15T19:31:26.542Z,76047.93
2019-05-15T19:33:49.634Z,76047.09
2019-05-15T19:36:19.096Z,76048.22
2019-05-15T19:38:48.974Z,76044.34
2019-05-15T19:41:18.457Z,76036.80
2019-05-15T19:43:48.758Z,76036.38
2019-05-15T19:46:18.396Z,76032.69
2019-05-15T19:48:48.983Z,76033.50
2019-05-15T19:51:18.642Z,76033.09
2019-05-15T19:53:48.117Z,76026.09
2019-05-15T19:56:18.888Z,76028.55
2019-05-15T19:58:48.527Z,76035.77
2019-05-15T20:01:18.793Z,76037.73
2019-05-15T20:03:52.813Z,76050.92
2019-05-15T20:06:19.853Z,76051.03
2019-05-15T20:08:49.367Z,76060.48
2019-05-15T20:11:18.842Z,76070.12
2019-05-15T20:13:48.861Z,76066.50
2019-05-15T20:16:21.311Z,76051.52
2019-05-15T20:18:49.774Z,76038.67
2019-05-15T20:21:19.239Z,76035.38
2019-05-15T20:23:48.964Z,76032.64
2019-05-15T20:26:18.735Z,76034.73
2019-05-15T20:28:48.404Z,76034.18
2019-05-15T20:31:18.542Z,76033.28
2019-05-15T20:34:02.113Z,76034.95
2019-05-15T20:36:19.986Z,76040.51
2019-05-15T20:38:49.467Z,76048.34
2019-05-15T20:41:19.289Z,76044.25
2019-05-15T20:43:49.174Z,76049.99
2019-05-15T20:46:19.427Z,76045.54
2019-05-15T20:48:49.002Z,76044.47
2019-05-15T20:51:18.720Z,76044.89
2019-05-15T20:53:48.719Z,76043.61
2019-05-15T20:56:18.355Z,76043.13
2019-05-15T20:58:47.984Z,76044.83
2019-05-15T21:01:18.262Z,76046.56
2019-05-15T21:03:50.333Z,76041.67
2019-05-15T21:06:19.215Z,76041.95
2019-05-15T21:08:48.935Z,76037.47
2019-05-15T21:11:18.510Z,76031.92
2019-05-15T21:13:49.061Z,76032.70
2019-05-15T21:16:19.013Z,76033.44
2019-05-15T21:18:48.548Z,76048.09
2019-05-15T21:21:19.108Z,76047.77
2019-05-15T21:23:49.252Z,76042.53
2019-05-15T21:26:19.008Z,76041.31
2019-05-15T21:28:48.522Z,76041.28
2019-05-15T21:31:21.894Z,76036.83
2019-05-15T21:33:50.467Z,76036.72
2019-05-15T21:36:20.025Z,76036.41
2019-05-15T21:38:49.450Z,76040.92
2019-05-15T21:41:19.035Z,76041.67
2019-05-15T21:43:50.413Z,76040.12
2019-05-15T21:46:19.754Z,76042.70
2019-05-15T21:48:49.214Z,76043.86
2019-05-15T21:51:18.865Z,76045.05
2019-05-15T21:53:48.477Z,76045.66
2019-05-15T21:56:18.834Z,76045.98
2019-05-15T21:58:48.566Z,76048.25
2019-05-15T22:01:19.600Z,76051.73
2019-05-15T22:03:49.658Z,76055.95
2019-05-15T22:06:19.115Z,76057.28
2019-05-15T22:08:48.635Z,76055.63
2019-05-15T22:11:21.946Z,76054.41
2019-05-15T22:13:50.118Z,76058.02
2019-05-15T22:16:19.765Z,76058.81
2019-05-15T22:18:49.244Z,76056.89
2019-05-15T22:21:18.797Z,76058.22
2019-05-15T22:23:48.382Z,76061.83
2019-05-15T22:26:18.564Z,76060.41
2019-05-15T22:28:49.127Z,76059.02
2019-05-15T22:31:18.728Z,76055.63
2019-05-15T22:33:48.464Z,76057.53
2019-05-15T22:36:18.861Z,76054.41
2019-05-15T22:38:50.333Z,76052.13
2019-05-15T22:41:19.692Z,76050.64
2019-05-15T22:43:49.089Z,76049.38
2019-05-15T22:46:18.785Z,76050.55
2019-05-15T22:48:48.711Z,76047.18
2019-05-15T22:51:18.563Z,76043.82
2019-05-15T22:53:48.903Z,76044.30
2019-05-15T22:56:18.477Z,76050.95
2019-05-15T22:58:48.191Z,76048.34
2019-05-15T23:01:18.806Z,76048.15
2019-05-15T23:03:48.427Z,76048.41
2019-05-15T23:06:18.098Z,76055.95
2019-05-15T23:08:48.879Z,76053.28
2019-05-15T23:11:19.068Z,76046.45
2019-05-15T23:13:48.612Z,76043.60
2019-05-15T23:16:18.428Z,76045.30
2019-05-15T23:18:48.427Z,76053.86
2019-05-15T23:21:18.629Z,76061.19
2019-05-15T23:23:48.711Z,76058.05
2019-05-15T23:26:18.391Z,76053.28
2019-05-15T23:28:48.221Z,76047.22
2019-05-15T23:31:18.915Z,76045.76
2019-05-15T23:33:48.664Z,76047.41
2019-05-15T23:36:18.218Z,76058.02
2019-05-15T23:38:48.138Z,76052.31
2019-05-15T23:41:18.897Z,76063.92
2019-05-15T23:43:48.865Z,76057.93
2019-05-15T23:46:18.586Z,76050.83
2019-05-15T23:48:48.603Z,76066.50
2019-05-15T23:51:18.922Z,76059.51
2019-05-15T23:53:48.667Z,76052.44
2019-05-15T23:56:18.987Z,76052.28
2019-05-15T23:58:48.915Z,76053.38
